AFL1311 UACC-OMDB
Flight info
| Callsign | AFL1311 |
|---|---|
| Flight time | 4h 26m |
| Altitude | 36000 |
| Route | KOKON M75 DZG N990 AGNAN R433 ABDAN B114 RIKOP M324 PATAT L519 PUVAL |
| Aircraft | B77W/H-SDE1E2E3FGHIJ2J3J4J5M1RWXY/LB1D1 |
Departure
| Time | 2026-04-30 13:13 |
|---|---|
| Airport | Nursultan Nazarbayev International Airport (UACC) |
Arrival
| Time | 2026-04-30 17:39 |
|---|---|
| Airport | Dubai International Airport (OMDB) |
| Time | Latitude | Longitude | Altitude | Speed | Heading |
|---|---|---|---|---|---|
| 2026-04-30 12:08 | 51.02828 | 71.46561 | 1168 ft | 0 kts | 314° |
| 2026-04-30 13:03 | 51.02826 | 71.46564 | 1169 ft | 1 kts | 314° |
| 2026-04-30 13:04 | 51.02815 | 71.46583 | 1164 ft | 3 kts | 316° |
| 2026-04-30 13:04 | 51.02802 | 71.46606 | 1164 ft | 3 kts | 304° |
| 2026-04-30 13:04 | 51.02792 | 71.46631 | 1164 ft | 4 kts | 316° |
| 2026-04-30 13:04 | 51.02766 | 71.46655 | 1164 ft | 2 kts | 359° |
| 2026-04-30 13:05 | 51.02755 | 71.46653 | 1164 ft | 0 kts | 35° |
| 2026-04-30 13:07 | 51.02756 | 71.46654 | 1164 ft | 1 kts | 36° |
| 2026-04-30 13:07 | 51.02771 | 71.46671 | 1164 ft | 4 kts | 37° |
| 2026-04-30 13:08 | 51.02800 | 71.46717 | 1164 ft | 8 kts | 47° |
| 2026-04-30 13:08 | 51.02810 | 71.46800 | 1165 ft | 8 kts | 103° |
| 2026-04-30 13:08 | 51.02784 | 71.46880 | 1165 ft | 8 kts | 111° |
| 2026-04-30 13:08 | 51.02794 | 71.46969 | 1164 ft | 9 kts | 63° |
| 2026-04-30 13:09 | 51.02835 | 71.47057 | 1164 ft | 13 kts | 45° |
| 2026-04-30 13:09 | 51.02917 | 71.47184 | 1165 ft | 20 kts | 46° |
| 2026-04-30 13:09 | 51.03035 | 71.47372 | 1165 ft | 28 kts | 45° |
| 2026-04-30 13:09 | 51.03186 | 71.47608 | 1165 ft | 32 kts | 45° |
| 2026-04-30 13:10 | 51.03261 | 71.47726 | 1167 ft | 7 kts | 44° |
| 2026-04-30 13:10 | 51.03299 | 71.47783 | 1165 ft | 10 kts | 44° |
| 2026-04-30 13:10 | 51.03366 | 71.47886 | 1165 ft | 17 kts | 44° |
| 2026-04-30 13:10 | 51.03430 | 71.48064 | 1167 ft | 20 kts | 83° |
| 2026-04-30 13:11 | 51.03407 | 71.48274 | 1166 ft | 20 kts | 128° |
| 2026-04-30 13:11 | 51.03341 | 71.48298 | 1167 ft | 10 kts | 200° |
| 2026-04-30 13:11 | 51.03307 | 71.48261 | 1165 ft | 0 kts | 221° |
| 2026-04-30 13:12 | 51.03192 | 71.48081 | 1167 ft | 69 kts | 225° |
| 2026-04-30 13:13 | 51.01529 | 71.45521 | 1461 ft | 237 kts | 224° |
| 2026-04-30 13:13 | 51.00315 | 71.43608 | 2801 ft | 251 kts | 222° |
| 2026-04-30 13:13 | 50.97756 | 71.39593 | 5437 ft | 264 kts | 221° |
| 2026-04-30 13:14 | 50.96433 | 71.37530 | 6361 ft | 269 kts | 221° |
| 2026-04-30 13:14 | 50.95101 | 71.35465 | 7271 ft | 272 kts | 221° |
| 2026-04-30 13:14 | 50.92387 | 71.31268 | 9226 ft | 274 kts | 222° |
| 2026-04-30 13:15 | 50.91017 | 71.29149 | 10169 ft | 276 kts | 222° |
| 2026-04-30 13:15 | 50.88099 | 71.24639 | 10992 ft | 319 kts | 222° |
| 2026-04-30 13:15 | 50.86440 | 71.22075 | 11186 ft | 346 kts | 222° |
| 2026-04-30 13:16 | 50.84673 | 71.19340 | 11717 ft | 362 kts | 223° |
| 2026-04-30 13:16 | 50.82850 | 71.16519 | 12473 ft | 371 kts | 223° |
| 2026-04-30 13:16 | 50.80993 | 71.13651 | 13393 ft | 375 kts | 223° |
| 2026-04-30 13:17 | 50.77055 | 71.07596 | 15190 ft | 384 kts | 223° |
| 2026-04-30 13:17 | 50.75122 | 71.04633 | 16039 ft | 389 kts | 223° |
| 2026-04-30 13:17 | 50.71193 | 70.98621 | 17687 ft | 398 kts | 223° |
| 2026-04-30 13:18 | 50.69167 | 70.95630 | 18416 ft | 398 kts | 220° |
| 2026-04-30 13:18 | 50.64709 | 70.90312 | 18930 ft | 406 kts | 212° |
| 2026-04-30 13:18 | 50.62286 | 70.88001 | 19214 ft | 408 kts | 209° |
| 2026-04-30 13:19 | 50.59789 | 70.85830 | 19535 ft | 410 kts | 208° |
| 2026-04-30 13:19 | 50.57275 | 70.83652 | 19904 ft | 415 kts | 209° |
| 2026-04-30 13:19 | 50.54795 | 70.81414 | 20621 ft | 417 kts | 210° |
| 2026-04-30 13:19 | 50.52279 | 70.79040 | 21424 ft | 419 kts | 211° |
| 2026-04-30 13:20 | 50.49819 | 70.76636 | 22107 ft | 423 kts | 212° |
| 2026-04-30 13:20 | 50.47320 | 70.74139 | 22719 ft | 428 kts | 212° |
| 2026-04-30 13:20 | 50.44799 | 70.71595 | 23348 ft | 433 kts | 213° |
| 2026-04-30 13:20 | 50.42251 | 70.69022 | 23917 ft | 437 kts | 213° |
| 2026-04-30 13:21 | 50.39687 | 70.66443 | 24498 ft | 440 kts | 213° |
| 2026-04-30 13:21 | 50.37103 | 70.63858 | 25063 ft | 442 kts | 212° |
| 2026-04-30 13:21 | 50.34501 | 70.61267 | 25599 ft | 445 kts | 212° |
| 2026-04-30 13:22 | 50.29250 | 70.56063 | 26617 ft | 452 kts | 212° |
| 2026-04-30 13:22 | 50.26588 | 70.53431 | 27101 ft | 455 kts | 212° |
| 2026-04-30 13:22 | 50.21199 | 70.48107 | 28057 ft | 461 kts | 212° |
| 2026-04-30 13:23 | 50.18483 | 70.45428 | 28516 ft | 464 kts | 212° |
| 2026-04-30 13:23 | 50.13044 | 70.39866 | 29309 ft | 469 kts | 215° |
| 2026-04-30 13:24 | 50.07860 | 70.33731 | 29702 ft | 466 kts | 219° |
| 2026-04-30 13:24 | 50.02782 | 70.27372 | 30310 ft | 472 kts | 218° |
| 2026-04-30 13:25 | 50.01532 | 70.25867 | 30564 ft | 470 kts | 218° |
| 2026-04-30 13:26 | 49.93688 | 70.16803 | 31877 ft | 468 kts | 216° |
| 2026-04-30 13:26 | 49.88429 | 70.10816 | 32677 ft | 467 kts | 217° |
| 2026-04-30 13:27 | 49.83209 | 70.04833 | 33485 ft | 466 kts | 217° |
| 2026-04-30 13:28 | 49.75449 | 69.95917 | 34523 ft | 464 kts | 217° |
| 2026-04-30 13:28 | 49.70274 | 69.89994 | 35187 ft | 461 kts | 217° |
| 2026-04-30 13:28 | 49.67699 | 69.87055 | 35515 ft | 460 kts | 217° |
| 2026-04-30 13:29 | 49.62537 | 69.81176 | 35866 ft | 464 kts | 217° |
| 2026-04-30 13:29 | 49.57336 | 69.75267 | 35909 ft | 462 kts | 217° |
| 2026-04-30 13:31 | 49.44550 | 69.60807 | 35906 ft | 456 kts | 217° |
| 2026-04-30 13:32 | 49.31727 | 69.46402 | 35905 ft | 459 kts | 216° |
| 2026-04-30 13:33 | 49.21370 | 69.34842 | 35908 ft | 461 kts | 216° |
| 2026-04-30 13:34 | 49.13572 | 69.26182 | 35906 ft | 462 kts | 216° |
| 2026-04-30 13:35 | 49.03190 | 69.14700 | 35909 ft | 462 kts | 216° |
| 2026-04-30 13:36 | 48.92777 | 69.03243 | 35908 ft | 461 kts | 216° |
| 2026-04-30 13:36 | 48.85849 | 68.95654 | 35907 ft | 461 kts | 216° |
| 2026-04-30 13:37 | 48.78046 | 68.87139 | 35905 ft | 461 kts | 216° |
| 2026-04-30 13:38 | 48.70227 | 68.78638 | 35908 ft | 461 kts | 216° |
| 2026-04-30 13:39 | 48.59786 | 68.67338 | 35912 ft | 461 kts | 215° |
| 2026-04-30 13:40 | 48.51936 | 68.58906 | 35907 ft | 462 kts | 214° |
| 2026-04-30 13:40 | 48.46618 | 68.53459 | 35916 ft | 462 kts | 213° |
| 2026-04-30 13:41 | 48.41283 | 68.48076 | 35919 ft | 462 kts | 214° |
| 2026-04-30 13:41 | 48.35988 | 68.42693 | 35912 ft | 462 kts | 214° |
| 2026-04-30 13:42 | 48.30661 | 68.37269 | 35915 ft | 462 kts | 214° |
| 2026-04-30 13:42 | 48.22751 | 68.28979 | 35912 ft | 462 kts | 215° |
| 2026-04-30 13:43 | 48.17494 | 68.23388 | 35915 ft | 462 kts | 215° |
| 2026-04-30 13:43 | 48.12243 | 68.17844 | 35907 ft | 462 kts | 215° |
| 2026-04-30 13:44 | 48.06973 | 68.12320 | 35908 ft | 462 kts | 214° |
| 2026-04-30 13:44 | 48.01736 | 68.06850 | 35910 ft | 462 kts | 214° |
| 2026-04-30 13:45 | 47.93797 | 67.98576 | 35902 ft | 462 kts | 214° |
| 2026-04-30 13:46 | 47.88558 | 67.93132 | 35893 ft | 462 kts | 214° |
| 2026-04-30 13:46 | 47.83291 | 67.87673 | 35891 ft | 462 kts | 214° |
| 2026-04-30 13:47 | 47.78014 | 67.82215 | 35887 ft | 462 kts | 214° |
| 2026-04-30 13:47 | 47.72728 | 67.76777 | 35883 ft | 462 kts | 213° |
| 2026-04-30 13:48 | 47.67323 | 67.71862 | 35880 ft | 450 kts | 208° |
| 2026-04-30 13:48 | 47.61787 | 67.67681 | 35877 ft | 444 kts | 205° |
| 2026-04-30 13:49 | 47.56167 | 67.63830 | 35898 ft | 449 kts | 205° |
| 2026-04-30 13:49 | 47.50478 | 67.59727 | 35909 ft | 460 kts | 207° |
| 2026-04-30 13:50 | 47.44732 | 67.55388 | 35904 ft | 465 kts | 207° |
| 2026-04-30 13:50 | 47.36127 | 67.48847 | 35905 ft | 465 kts | 207° |
| 2026-04-30 13:51 | 47.30367 | 67.44512 | 35905 ft | 464 kts | 207° |
| 2026-04-30 13:51 | 47.24626 | 67.40211 | 35902 ft | 463 kts | 207° |
| 2026-04-30 13:52 | 47.18888 | 67.35920 | 35898 ft | 462 kts | 207° |
| 2026-04-30 13:52 | 47.13162 | 67.31644 | 35897 ft | 461 kts | 207° |
| 2026-04-30 13:53 | 47.07441 | 67.27383 | 35897 ft | 461 kts | 207° |
| 2026-04-30 13:53 | 47.01794 | 67.22931 | 35898 ft | 461 kts | 209° |
| 2026-04-30 13:54 | 46.96234 | 67.18376 | 35895 ft | 461 kts | 209° |
| 2026-04-30 13:54 | 46.90612 | 67.13847 | 35897 ft | 461 kts | 208° |
| 2026-04-30 13:55 | 46.84946 | 67.09431 | 35891 ft | 461 kts | 207° |
| 2026-04-30 13:55 | 46.79196 | 67.05283 | 35897 ft | 462 kts | 206° |
| 2026-04-30 13:56 | 46.73408 | 67.01168 | 35888 ft | 463 kts | 206° |
| 2026-04-30 13:56 | 46.67625 | 66.97007 | 35886 ft | 464 kts | 207° |
| 2026-04-30 13:57 | 46.61844 | 66.92819 | 35884 ft | 464 kts | 207° |
| 2026-04-30 13:57 | 46.56059 | 66.88638 | 35883 ft | 464 kts | 207° |
| 2026-04-30 13:58 | 46.47381 | 66.82395 | 35885 ft | 464 kts | 207° |
| 2026-04-30 13:59 | 46.41628 | 66.78268 | 35881 ft | 463 kts | 207° |
| 2026-04-30 13:59 | 46.35854 | 66.74153 | 35880 ft | 463 kts | 207° |
| 2026-04-30 14:00 | 46.30070 | 66.70052 | 35873 ft | 462 kts | 207° |
| 2026-04-30 14:00 | 46.21404 | 66.63921 | 35873 ft | 462 kts | 207° |
| 2026-04-30 14:01 | 46.15635 | 66.59847 | 35870 ft | 461 kts | 207° |
| 2026-04-30 14:01 | 46.09860 | 66.55778 | 35864 ft | 461 kts | 207° |
| 2026-04-30 14:02 | 46.04101 | 66.51730 | 35864 ft | 461 kts | 207° |
| 2026-04-30 14:02 | 45.98337 | 66.47689 | 35864 ft | 460 kts | 207° |
| 2026-04-30 14:03 | 45.92574 | 66.43658 | 35860 ft | 460 kts | 207° |
| 2026-04-30 14:03 | 45.86848 | 66.39661 | 35860 ft | 460 kts | 207° |
| 2026-04-30 14:04 | 45.81071 | 66.35639 | 35855 ft | 460 kts | 207° |
| 2026-04-30 14:04 | 45.75329 | 66.31649 | 35856 ft | 460 kts | 207° |
| 2026-04-30 14:05 | 45.69569 | 66.27657 | 35854 ft | 460 kts | 207° |
| 2026-04-30 14:05 | 45.63803 | 66.23670 | 35855 ft | 460 kts | 207° |
| 2026-04-30 14:06 | 45.55149 | 66.17703 | 35850 ft | 460 kts | 207° |
| 2026-04-30 14:07 | 45.46506 | 66.11764 | 35848 ft | 459 kts | 207° |
| 2026-04-30 14:08 | 45.37871 | 66.05848 | 35844 ft | 459 kts | 207° |
| 2026-04-30 14:08 | 45.29300 | 65.99806 | 35843 ft | 458 kts | 208° |
| 2026-04-30 14:09 | 45.23647 | 65.95603 | 35840 ft | 458 kts | 208° |
| 2026-04-30 14:10 | 45.15646 | 65.89690 | 35837 ft | 457 kts | 208° |
| 2026-04-30 14:10 | 45.10012 | 65.85580 | 35844 ft | 456 kts | 208° |
| 2026-04-30 14:11 | 45.04364 | 65.81477 | 35840 ft | 456 kts | 208° |
| 2026-04-30 14:11 | 44.98723 | 65.77386 | 35827 ft | 455 kts | 208° |
| 2026-04-30 14:12 | 44.93094 | 65.73308 | 35821 ft | 454 kts | 208° |
| 2026-04-30 14:12 | 44.87467 | 65.69241 | 35811 ft | 454 kts | 208° |
| 2026-04-30 14:13 | 44.81882 | 65.65213 | 35805 ft | 453 kts | 208° |
| 2026-04-30 14:13 | 44.76380 | 65.61253 | 35801 ft | 453 kts | 208° |
| 2026-04-30 14:14 | 44.70812 | 65.57254 | 35808 ft | 453 kts | 208° |
| 2026-04-30 14:14 | 44.65319 | 65.53353 | 35798 ft | 453 kts | 207° |
| 2026-04-30 14:15 | 44.59675 | 65.49419 | 35803 ft | 453 kts | 207° |
| 2026-04-30 14:15 | 44.54064 | 65.45522 | 35808 ft | 453 kts | 207° |
| 2026-04-30 14:16 | 44.48424 | 65.41601 | 35817 ft | 453 kts | 207° |
| 2026-04-30 14:16 | 44.42770 | 65.37670 | 35821 ft | 453 kts | 207° |
| 2026-04-30 14:17 | 44.37271 | 65.33855 | 35829 ft | 453 kts | 207° |
| 2026-04-30 14:17 | 44.31629 | 65.29951 | 35826 ft | 453 kts | 207° |
| 2026-04-30 14:18 | 44.26006 | 65.26068 | 35827 ft | 453 kts | 207° |
| 2026-04-30 14:18 | 44.17535 | 65.20235 | 35815 ft | 452 kts | 207° |
| 2026-04-30 14:19 | 44.09061 | 65.14416 | 35819 ft | 452 kts | 207° |
| 2026-04-30 14:20 | 44.03498 | 65.10609 | 35812 ft | 451 kts | 207° |
| 2026-04-30 14:20 | 43.95231 | 65.04971 | 35820 ft | 451 kts | 207° |
| 2026-04-30 14:21 | 43.89606 | 65.01142 | 35811 ft | 450 kts | 207° |
| 2026-04-30 14:22 | 43.81155 | 64.95404 | 35818 ft | 450 kts | 207° |
| 2026-04-30 14:22 | 43.72713 | 64.89689 | 35811 ft | 450 kts | 207° |
| 2026-04-30 14:23 | 43.61484 | 64.82132 | 35810 ft | 450 kts | 207° |
| 2026-04-30 14:24 | 43.53036 | 64.76468 | 35807 ft | 450 kts | 207° |
| 2026-04-30 14:25 | 43.42707 | 64.69564 | 35814 ft | 450 kts | 207° |
| 2026-04-30 14:26 | 43.34246 | 64.63927 | 35831 ft | 451 kts | 207° |
| 2026-04-30 14:27 | 43.25771 | 64.58300 | 35833 ft | 451 kts | 207° |
| 2026-04-30 14:27 | 43.20180 | 64.54597 | 35842 ft | 451 kts | 207° |
| 2026-04-30 14:28 | 43.11695 | 64.48991 | 35836 ft | 451 kts | 207° |
| 2026-04-30 14:28 | 43.06048 | 64.45271 | 35847 ft | 451 kts | 207° |
| 2026-04-30 14:29 | 42.94732 | 64.37837 | 35835 ft | 451 kts | 207° |
| 2026-04-30 14:31 | 42.80603 | 64.28597 | 35859 ft | 452 kts | 207° |
| 2026-04-30 14:31 | 42.72161 | 64.23100 | 35865 ft | 452 kts | 207° |
| 2026-04-30 14:32 | 42.63650 | 64.17572 | 35871 ft | 452 kts | 207° |
| 2026-04-30 14:33 | 42.58000 | 64.13805 | 35869 ft | 451 kts | 210° |
| 2026-04-30 14:33 | 42.52653 | 64.09530 | 35841 ft | 433 kts | 213° |
| 2026-04-30 14:33 | 42.50177 | 64.07310 | 35877 ft | 426 kts | 215° |
| 2026-04-30 14:34 | 42.45309 | 64.02599 | 35888 ft | 439 kts | 217° |
| 2026-04-30 14:34 | 42.40280 | 63.97737 | 35885 ft | 450 kts | 216° |
| 2026-04-30 14:35 | 42.32418 | 63.90557 | 35880 ft | 456 kts | 214° |
| 2026-04-30 14:36 | 42.27107 | 63.85837 | 35876 ft | 456 kts | 214° |
| 2026-04-30 14:36 | 42.21824 | 63.81148 | 35875 ft | 454 kts | 214° |
| 2026-04-30 14:37 | 42.16559 | 63.76465 | 35875 ft | 452 kts | 214° |
| 2026-04-30 14:37 | 42.11346 | 63.71829 | 35880 ft | 451 kts | 214° |
| 2026-04-30 14:38 | 42.06112 | 63.67184 | 35884 ft | 449 kts | 214° |
| 2026-04-30 14:38 | 42.00883 | 63.62555 | 35886 ft | 449 kts | 214° |
| 2026-04-30 14:39 | 41.95667 | 63.57947 | 35886 ft | 449 kts | 214° |
| 2026-04-30 14:39 | 41.90452 | 63.53350 | 35891 ft | 449 kts | 214° |
| 2026-04-30 14:40 | 41.82788 | 63.46610 | 35896 ft | 449 kts | 214° |
| 2026-04-30 14:40 | 41.77544 | 63.42008 | 35899 ft | 450 kts | 214° |
| 2026-04-30 14:41 | 41.72294 | 63.37411 | 35902 ft | 451 kts | 214° |
| 2026-04-30 14:41 | 41.67045 | 63.32825 | 35908 ft | 451 kts | 214° |
| 2026-04-30 14:42 | 41.61777 | 63.28229 | 35907 ft | 451 kts | 214° |
| 2026-04-30 14:42 | 41.56549 | 63.23677 | 35909 ft | 452 kts | 214° |
| 2026-04-30 14:43 | 41.51283 | 63.19099 | 35911 ft | 451 kts | 214° |
| 2026-04-30 14:43 | 41.46026 | 63.14504 | 35915 ft | 451 kts | 215° |
| 2026-04-30 14:44 | 41.40785 | 63.09908 | 35919 ft | 451 kts | 215° |
| 2026-04-30 14:44 | 41.35569 | 63.05344 | 35918 ft | 450 kts | 215° |
| 2026-04-30 14:45 | 41.30337 | 63.00780 | 35920 ft | 449 kts | 215° |
| 2026-04-30 14:45 | 41.25109 | 62.96230 | 35919 ft | 449 kts | 215° |
| 2026-04-30 14:46 | 41.19878 | 62.91688 | 35919 ft | 448 kts | 215° |
| 2026-04-30 14:46 | 41.14664 | 62.87169 | 35929 ft | 448 kts | 215° |
| 2026-04-30 14:47 | 41.09450 | 62.82657 | 35928 ft | 447 kts | 215° |
| 2026-04-30 14:47 | 41.04236 | 62.78154 | 35929 ft | 447 kts | 215° |
| 2026-04-30 14:48 | 40.99046 | 62.73681 | 35932 ft | 447 kts | 215° |
| 2026-04-30 14:48 | 40.93839 | 62.69202 | 35929 ft | 447 kts | 215° |
| 2026-04-30 14:49 | 40.88619 | 62.64720 | 35936 ft | 448 kts | 215° |
| 2026-04-30 14:49 | 40.83382 | 62.60232 | 35938 ft | 448 kts | 215° |
| 2026-04-30 14:50 | 40.75541 | 62.53530 | 35940 ft | 448 kts | 215° |
| 2026-04-30 14:51 | 40.67697 | 62.46842 | 35940 ft | 448 kts | 215° |
| 2026-04-30 14:52 | 40.59853 | 62.40173 | 35940 ft | 447 kts | 215° |
| 2026-04-30 14:52 | 40.52037 | 62.33546 | 35946 ft | 447 kts | 215° |
| 2026-04-30 14:53 | 40.44155 | 62.26881 | 35948 ft | 447 kts | 215° |
| 2026-04-30 14:54 | 40.39130 | 62.22353 | 35933 ft | 434 kts | 220° |
| 2026-04-30 14:54 | 40.35041 | 62.16685 | 35955 ft | 432 kts | 238° |
| 2026-04-30 14:55 | 40.30196 | 62.06822 | 35935 ft | 426 kts | 230° |
| 2026-04-30 14:56 | 40.22057 | 61.95017 | 35963 ft | 445 kts | 231° |
| 2026-04-30 14:57 | 40.16260 | 61.85524 | 35960 ft | 445 kts | 233° |
| 2026-04-30 14:58 | 40.08657 | 61.72835 | 35965 ft | 442 kts | 232° |
| 2026-04-30 14:58 | 40.02937 | 61.63444 | 35972 ft | 439 kts | 232° |
| 2026-04-30 15:00 | 39.93436 | 61.47896 | 35978 ft | 437 kts | 232° |
| 2026-04-30 15:01 | 39.85875 | 61.35572 | 35980 ft | 437 kts | 232° |
| 2026-04-30 15:01 | 39.80165 | 61.26312 | 35988 ft | 437 kts | 232° |
| 2026-04-30 15:02 | 39.76354 | 61.20144 | 35998 ft | 438 kts | 232° |
| 2026-04-30 15:03 | 39.66820 | 61.04760 | 36006 ft | 438 kts | 232° |
| 2026-04-30 15:04 | 39.57261 | 60.89409 | 36016 ft | 437 kts | 232° |
| 2026-04-30 15:06 | 39.47720 | 60.74160 | 36029 ft | 436 kts | 232° |
| 2026-04-30 15:07 | 39.40056 | 60.61971 | 36030 ft | 436 kts | 232° |
| 2026-04-30 15:08 | 39.32374 | 60.49804 | 36042 ft | 436 kts | 232° |
| 2026-04-30 15:09 | 39.22801 | 60.34698 | 36043 ft | 436 kts | 232° |
| 2026-04-30 15:10 | 39.15253 | 60.22837 | 36054 ft | 435 kts | 232° |
| 2026-04-30 15:11 | 39.03718 | 60.04799 | 36058 ft | 434 kts | 231° |
| 2026-04-30 15:13 | 38.94821 | 59.90954 | 36059 ft | 435 kts | 231° |
| 2026-04-30 15:14 | 38.81353 | 59.70112 | 36068 ft | 434 kts | 231° |
| 2026-04-30 15:17 | 38.63968 | 59.43402 | 36075 ft | 434 kts | 231° |
| 2026-04-30 15:19 | 38.49478 | 59.18868 | 36094 ft | 433 kts | 234° |
| 2026-04-30 17:39 | 25.25705 | 55.36850 | 33 ft | 10 kts | 67° |